createdAt,value
2017-07-31T00:02:06.437Z,78.10
2017-07-31T00:04:34.633Z,77.90
2017-07-31T00:07:02.780Z,77.70
2017-07-31T00:09:31.694Z,78.40
2017-07-31T00:11:59.897Z,78.30
2017-07-31T00:14:28.064Z,79.00
2017-07-31T00:16:56.240Z,79.10
2017-07-31T00:19:24.416Z,79.50
2017-07-31T00:21:52.581Z,79.50
2017-07-31T00:24:20.744Z,79.40
2017-07-31T00:26:48.935Z,79.30
2017-07-31T00:29:17.115Z,79.50
2017-07-31T00:31:45.293Z,79.90
2017-07-31T00:34:13.741Z,79.80
2017-07-31T00:36:41.890Z,80.00
2017-07-31T00:39:10.810Z,80.10
2017-07-31T00:41:38.986Z,80.00
2017-07-31T00:44:07.149Z,80.40
2017-07-31T00:46:35.317Z,80.60
2017-07-31T00:49:03.499Z,80.80
2017-07-31T00:51:31.664Z,81.10
2017-07-31T00:54:00.596Z,81.10
2017-07-31T00:56:28.789Z,81.10
2017-07-31T00:58:56.958Z,81.50
2017-07-31T01:01:25.101Z,81.90
2017-07-31T01:03:53.297Z,82.00
2017-07-31T01:06:21.465Z,82.50
2017-07-31T01:08:49.641Z,82.90
2017-07-31T01:11:17.836Z,83.00
2017-07-31T01:13:45.997Z,83.30
2017-07-31T01:16:14.146Z,83.50
2017-07-31T01:18:42.321Z,83.50
2017-07-31T01:21:10.480Z,83.20
2017-07-31T01:23:39.410Z,84.30
2017-07-31T01:26:07.587Z,84.20
2017-07-31T01:28:35.734Z,85.10
2017-07-31T01:31:03.881Z,86.10
2017-07-31T01:33:32.844Z,87.40
2017-07-31T01:36:00.990Z,87.30
2017-07-31T01:38:29.158Z,87.70
2017-07-31T01:40:57.325Z,88.50
2017-07-31T01:43:25.489Z,89.50
2017-07-31T01:45:53.633Z,89.60
2017-07-31T01:48:21.810Z,88.80
2017-07-31T01:50:49.955Z,88.70
2017-07-31T01:53:18.128Z,88.70
2017-07-31T01:55:46.316Z,88.70
2017-07-31T01:58:14.476Z,89.60
2017-07-31T02:00:42.622Z,90.10
2017-07-31T02:03:10.829Z,90.60
2017-07-31T02:05:38.997Z,90.80
2017-07-31T02:08:07.159Z,91.30
2017-07-31T02:10:35.346Z,91.30
2017-07-31T02:13:03.490Z,91.20
2017-07-31T02:15:31.653Z,91.20
2017-07-31T02:17:59.851Z,91.30
2017-07-31T02:20:27.994Z,91.50
2017-07-31T02:22:56.927Z,91.70
2017-07-31T02:25:24.673Z,91.70
2017-07-31T02:27:52.845Z,92.20
2017-07-31T02:30:20.995Z,92.80
2017-07-31T02:32:49.957Z,92.60
2017-07-31T02:35:18.134Z,92.60
2017-07-31T02:37:46.301Z,93.30
2017-07-31T02:40:14.475Z,92.60
2017-07-31T02:42:42.646Z,92.80
2017-07-31T02:45:10.796Z,92.60
2017-07-31T02:47:38.522Z,92.40
2017-07-31T02:50:06.226Z,91.90
2017-07-31T02:52:34.392Z,91.70
2017-07-31T02:55:02.607Z,92.30
2017-07-31T02:57:31.629Z,91.80
2017-07-31T03:02:47.243Z,92.40
2017-07-31T03:05:15.389Z,92.20
2017-07-31T03:07:43.603Z,92.10
2017-07-31T03:10:11.803Z,92.20
2017-07-31T03:12:39.982Z,92.10
2017-07-31T03:15:08.159Z,92.40
2017-07-31T03:17:36.330Z,92.30
2017-07-31T03:20:04.497Z,92.00
2017-07-31T03:22:32.639Z,91.60
2017-07-31T03:25:01.984Z,91.40
2017-07-31T03:27:30.133Z,91.40
2017-07-31T03:29:58.298Z,91.30
2017-07-31T03:32:26.480Z,91.30
2017-07-31T03:34:54.644Z,90.30
2017-07-31T03:37:22.819Z,90.50
2017-07-31T03:39:51.009Z,90.60
2017-07-31T03:42:19.154Z,90.80
2017-07-31T03:44:48.081Z,90.30
2017-07-31T03:47:16.253Z,90.20
2017-07-31T03:49:44.416Z,90.30
2017-07-31T03:52:12.580Z,91.10
2017-07-31T03:54:41.921Z,91.60
2017-07-31T03:57:10.067Z,91.60
2017-07-31T03:59:38.239Z,91.30
2017-07-31T04:02:06.423Z,90.80
2017-07-31T04:04:34.565Z,90.40
2017-07-31T04:07:03.501Z,90.00
2017-07-31T04:09:31.693Z,89.80
2017-07-31T04:11:59.861Z,90.00
2017-07-31T04:14:28.024Z,90.10
2017-07-31T04:16:56.228Z,90.10
2017-07-31T04:19:24.389Z,89.60
2017-07-31T04:21:52.558Z,88.90
2017-07-31T04:24:20.754Z,87.60
2017-07-31T04:26:48.932Z,88.00
2017-07-31T04:29:17.093Z,88.50
2017-07-31T04:31:45.265Z,88.20
2017-07-31T04:34:13.431Z,87.40
2017-07-31T04:36:41.588Z,87.30
2017-07-31T04:39:09.780Z,87.30
2017-07-31T04:41:37.930Z,86.60
2017-07-31T04:44:06.082Z,86.50
2017-07-31T04:46:35.030Z,86.80
2017-07-31T04:49:03.195Z,86.80
2017-07-31T04:51:31.361Z,87.70
2017-07-31T04:53:59.557Z,87.70
2017-07-31T04:56:27.722Z,87.30
2017-07-31T04:58:55.884Z,87.20
2017-07-31T05:01:24.074Z,86.30
2017-07-31T05:03:52.258Z,86.50
2017-07-31T05:06:20.411Z,86.70
2017-07-31T05:08:48.605Z,86.40
2017-07-31T05:11:16.750Z,85.80
2017-07-31T05:13:44.918Z,85.10
2017-07-31T05:16:13.109Z,85.10
2017-07-31T05:18:41.272Z,84.00
2017-07-31T05:21:09.437Z,84.30
2017-07-31T05:23:37.619Z,84.30
2017-07-31T05:26:05.792Z,82.90
2017-07-31T05:28:33.959Z,81.90
2017-07-31T05:31:02.141Z,82.50
2017-07-31T05:33:30.311Z,82.90
2017-07-31T05:35:58.467Z,83.10
2017-07-31T05:38:27.428Z,81.60
2017-07-31T05:40:56.858Z,81.60
2017-07-31T05:43:25.788Z,82.70
2017-07-31T05:45:53.522Z,82.70
2017-07-31T05:48:22.434Z,81.50
2017-07-31T05:50:50.629Z,81.50
2017-07-31T05:53:18.815Z,80.80
2017-07-31T05:55:46.981Z,80.30
2017-07-31T05:58:15.136Z,80.60
2017-07-31T06:00:43.314Z,80.40
2017-07-31T06:03:11.466Z,80.40
2017-07-31T06:05:39.617Z,79.20
2017-07-31T06:08:07.817Z,79.70
2017-07-31T06:10:36.001Z,79.30
2017-07-31T06:13:04.145Z,79.50
2017-07-31T06:15:32.346Z,79.60
2017-07-31T06:18:00.511Z,79.40
2017-07-31T06:20:28.681Z,78.60
2017-07-31T06:22:56.877Z,79.00
2017-07-31T06:25:25.031Z,78.50
2017-07-31T06:27:53.962Z,77.40
2017-07-31T06:30:22.164Z,77.20
2017-07-31T06:32:50.305Z,77.40
2017-07-31T06:35:18.450Z,75.30
2017-07-31T06:37:46.627Z,73.90
2017-07-31T06:40:15.561Z,71.00
2017-07-31T06:42:43.710Z,71.00
2017-07-31T06:45:11.967Z,72.10
2017-07-31T06:47:40.880Z,70.30
2017-07-31T06:50:09.047Z,70.30
2017-07-31T06:52:37.226Z,70.10
2017-07-31T06:55:05.392Z,67.60
2017-07-31T06:57:33.542Z,68.30
2017-07-31T07:00:01.746Z,67.70
2017-07-31T07:02:29.916Z,67.50
2017-07-31T07:04:58.073Z,67.40
2017-07-31T07:07:27.042Z,64.70
2017-07-31T07:09:55.198Z,64.80
2017-07-31T07:12:23.366Z,63.40
2017-07-31T07:14:51.561Z,63.10
2017-07-31T07:17:19.723Z,62.90
2017-07-31T07:19:47.896Z,61.20
2017-07-31T07:22:16.079Z,60.30
2017-07-31T07:24:44.235Z,60.10
2017-07-31T07:27:11.973Z,60.50
2017-07-31T07:29:39.706Z,58.70
2017-07-31T07:32:07.853Z,58.90
2017-07-31T07:34:35.999Z,58.80
2017-07-31T07:37:04.614Z,58.50
2017-07-31T07:39:32.785Z,59.00
2017-07-31T07:42:00.956Z,59.10
2017-07-31T07:44:29.153Z,58.30
2017-07-31T07:46:57.302Z,57.60
2017-07-31T07:49:25.051Z,57.60
2017-07-31T07:51:52.891Z,57.30
2017-07-31T07:54:21.044Z,57.10
2017-07-31T07:56:49.962Z,56.10
2017-07-31T07:59:18.147Z,56.20
2017-07-31T08:01:46.317Z,56.20
2017-07-31T08:04:14.466Z,55.60
2017-07-31T08:06:42.664Z,56.00
2017-07-31T08:09:10.840Z,54.00
2017-07-31T08:11:38.999Z,53.70
2017-07-31T08:14:07.196Z,50.40
2017-07-31T08:16:35.353Z,50.40
2017-07-31T08:19:03.525Z,50.00
2017-07-31T08:21:31.723Z,48.70
2017-07-31T08:23:59.889Z,46.80
2017-07-31T08:26:28.051Z,46.20
2017-07-31T08:28:56.240Z,43.00
2017-07-31T08:31:24.409Z,40.50
2017-07-31T08:33:52.589Z,40.20
2017-07-31T08:36:20.778Z,39.80
2017-07-31T08:38:48.945Z,39.90
2017-07-31T08:41:17.096Z,40.40
2017-07-31T08:43:46.056Z,37.90
2017-07-31T08:46:14.206Z,37.80
2017-07-31T08:48:42.369Z,34.20
2017-07-31T08:51:10.558Z,34.20
2017-07-31T08:53:38.715Z,35.20
2017-07-31T08:56:06.885Z,35.10
2017-07-31T08:58:35.388Z,33.00
2017-07-31T09:01:03.546Z,30.40
2017-07-31T09:03:32.025Z,29.30
2017-07-31T09:06:00.220Z,28.50
2017-07-31T09:08:28.373Z,27.40
2017-07-31T09:10:56.518Z,27.20
2017-07-31T09:13:24.710Z,25.90
2017-07-31T09:15:52.861Z,26.30
2017-07-31T09:18:20.586Z,25.80
2017-07-31T09:20:48.333Z,26.00
2017-07-31T09:23:16.478Z,25.50
2017-07-31T09:25:44.654Z,25.90
2017-07-31T09:28:13.161Z,25.10
2017-07-31T09:30:41.328Z,25.10
2017-07-31T09:33:09.481Z,25.00
2017-07-31T09:35:37.662Z,23.80
2017-07-31T09:38:05.814Z,23.10
2017-07-31T09:40:34.289Z,24.40
2017-07-31T09:43:02.016Z,24.30
2017-07-31T09:45:30.186Z,25.70
2017-07-31T09:47:58.330Z,24.00
2017-07-31T09:50:26.088Z,23.80
2017-07-31T09:52:55.017Z,23.60
2017-07-31T09:55:23.176Z,23.60
2017-07-31T09:57:50.924Z,24.30
2017-07-31T10:00:18.644Z,25.20
2017-07-31T10:02:46.349Z,25.90
2017-07-31T10:05:14.114Z,26.00
2017-07-31T10:07:41.835Z,26.00
2017-07-31T10:10:09.560Z,26.50
2017-07-31T10:12:37.756Z,25.70
2017-07-31T10:15:05.902Z,25.20
2017-07-31T10:17:34.059Z,22.00
2017-07-31T10:20:02.585Z,24.30
2017-07-31T10:22:30.297Z,24.20
2017-07-31T10:24:58.774Z,24.40
2017-07-31T10:27:26.501Z,24.40
2017-07-31T10:29:54.681Z,23.90
2017-07-31T10:32:22.866Z,22.60
2017-07-31T10:34:51.041Z,21.00
2017-07-31T10:37:19.182Z,20.00
2017-07-31T10:39:47.345Z,21.90
2017-07-31T10:42:15.534Z,21.50
2017-07-31T10:44:43.689Z,22.40
2017-07-31T10:47:11.837Z,22.40
2017-07-31T10:49:40.789Z,22.60
2017-07-31T10:52:08.941Z,22.20
2017-07-31T10:54:37.112Z,22.50
2017-07-31T10:57:05.279Z,23.90
2017-07-31T10:59:33.441Z,24.80
2017-07-31T11:02:02.382Z,27.70
2017-07-31T11:04:30.560Z,27.70
2017-07-31T11:06:58.750Z,27.20
2017-07-31T11:09:26.925Z,25.60
2017-07-31T11:11:55.174Z,26.00
2017-07-31T11:14:23.326Z,26.00
2017-07-31T11:16:51.474Z,24.60
2017-07-31T11:19:20.421Z,23.20
2017-07-31T11:21:48.573Z,23.20
2017-07-31T11:24:16.723Z,24.50
2017-07-31T11:26:44.925Z,25.20
2017-07-31T11:29:12.647Z,25.40
2017-07-31T11:31:40.364Z,24.80
2017-07-31T11:34:08.089Z,22.20
2017-07-31T11:36:36.577Z,20.70
2017-07-31T11:39:04.730Z,20.60
2017-07-31T11:41:33.685Z,24.30
2017-07-31T11:44:01.857Z,24.60
2017-07-31T11:46:30.034Z,27.00
2017-07-31T11:48:58.202Z,28.30
2017-07-31T11:51:26.347Z,28.20
2017-07-31T11:53:54.514Z,26.10
2017-07-31T11:56:23.469Z,26.00
2017-07-31T11:58:51.617Z,25.90
2017-07-31T12:01:19.770Z,27.80
2017-07-31T12:03:47.986Z,28.50
2017-07-31T12:06:16.139Z,29.30
2017-07-31T12:08:44.312Z,28.80
2017-07-31T12:11:12.497Z,30.00
2017-07-31T12:13:40.661Z,31.30
2017-07-31T12:16:08.841Z,33.40
2017-07-31T12:18:37.052Z,34.40
2017-07-31T12:21:05.220Z,34.00
2017-07-31T12:23:33.392Z,32.80
2017-07-31T12:26:01.640Z,34.20
2017-07-31T12:28:29.817Z,34.10
2017-07-31T12:30:57.978Z,35.10
2017-07-31T12:33:26.162Z,36.00
2017-07-31T12:35:54.353Z,36.20
2017-07-31T12:38:22.529Z,36.10
2017-07-31T12:40:50.730Z,36.40
2017-07-31T12:43:19.661Z,36.80
2017-07-31T12:45:47.849Z,36.70
2017-07-31T12:48:16.059Z,38.20
2017-07-31T12:50:44.235Z,37.20
2017-07-31T12:53:12.386Z,37.10
2017-07-31T12:55:40.565Z,36.90
2017-07-31T12:58:08.745Z,37.50
2017-07-31T13:00:36.918Z,37.00
2017-07-31T13:03:05.095Z,37.00
2017-07-31T13:05:33.280Z,38.00
2017-07-31T13:08:01.450Z,37.90
2017-07-31T13:10:29.635Z,37.80
2017-07-31T13:12:58.582Z,39.30
2017-07-31T13:15:26.749Z,38.60
2017-07-31T13:17:54.937Z,36.60
2017-07-31T13:20:23.116Z,35.30
2017-07-31T13:22:51.290Z,33.20
2017-07-31T13:25:19.467Z,35.10
2017-07-31T13:27:47.621Z,31.90
2017-07-31T13:30:15.766Z,33.20
2017-07-31T13:32:43.963Z,32.20
2017-07-31T13:35:12.140Z,33.10
2017-07-31T13:37:40.317Z,34.20
2017-07-31T13:40:08.488Z,33.50
2017-07-31T13:42:36.650Z,34.90
2017-07-31T13:45:04.822Z,35.50
2017-07-31T13:47:33.368Z,33.90
2017-07-31T13:50:01.536Z,33.20
2017-07-31T13:52:29.711Z,34.30
2017-07-31T13:54:57.911Z,36.30
2017-07-31T13:57:26.856Z,37.90
2017-07-31T13:59:55.009Z,37.80
2017-07-31T14:02:23.191Z,38.20
2017-07-31T14:04:51.376Z,37.10
2017-07-31T14:07:19.553Z,36.80
2017-07-31T14:09:47.747Z,36.00
2017-07-31T14:12:15.921Z,36.80
2017-07-31T14:14:44.082Z,36.70
2017-07-31T14:17:12.292Z,36.30
2017-07-31T14:19:40.469Z,37.40
2017-07-31T14:22:08.634Z,34.70
2017-07-31T14:24:36.816Z,33.50
2017-07-31T14:27:04.974Z,34.80
2017-07-31T14:29:33.151Z,34.80
2017-07-31T14:32:01.331Z,34.70
2017-07-31T14:34:29.509Z,34.90
2017-07-31T14:36:57.686Z,35.50
2017-07-31T14:39:25.866Z,35.70
2017-07-31T14:41:54.036Z,36.50
2017-07-31T14:44:22.202Z,35.80
2017-07-31T14:46:50.406Z,36.40
2017-07-31T14:49:19.340Z,35.90
2017-07-31T14:51:47.503Z,35.80
2017-07-31T14:54:15.709Z,35.90
2017-07-31T14:56:43.881Z,35.40
2017-07-31T14:59:12.035Z,36.00
2017-07-31T15:01:40.207Z,37.60
2017-07-31T15:04:08.372Z,38.40
2017-07-31T15:06:36.544Z,36.20
2017-07-31T15:09:04.722Z,36.60
2017-07-31T15:11:32.890Z,35.70
2017-07-31T15:14:01.046Z,35.50
2017-07-31T15:16:30.009Z,37.80
2017-07-31T15:18:58.195Z,37.70
2017-07-31T15:21:27.141Z,38.30
2017-07-31T15:23:55.344Z,38.00
2017-07-31T15:26:23.527Z,38.20
2017-07-31T15:28:51.704Z,38.20
2017-07-31T15:31:19.875Z,38.20
2017-07-31T15:33:48.039Z,38.80
2017-07-31T15:36:16.187Z,37.70
2017-07-31T15:38:44.352Z,38.40
2017-07-31T15:41:12.507Z,38.00
2017-07-31T15:43:40.689Z,37.40
2017-07-31T15:46:08.881Z,37.70
2017-07-31T15:48:37.029Z,38.00
2017-07-31T15:51:05.971Z,38.10
2017-07-31T15:53:34.160Z,38.10
2017-07-31T15:56:02.321Z,37.80
2017-07-31T15:58:30.470Z,38.70
2017-07-31T16:00:58.656Z,38.90
2017-07-31T16:03:26.821Z,39.00
2017-07-31T16:05:54.971Z,40.00
2017-07-31T16:08:23.155Z,37.90
2017-07-31T16:10:51.316Z,37.40
2017-07-31T16:13:20.247Z,37.00
2017-07-31T16:15:48.438Z,37.00
2017-07-31T16:18:16.616Z,37.40
2017-07-31T16:20:44.785Z,38.30
2017-07-31T16:23:12.992Z,38.50
2017-07-31T16:25:41.938Z,38.10
2017-07-31T16:28:10.867Z,37.30
2017-07-31T16:30:39.077Z,37.30
2017-07-31T16:33:07.244Z,37.80
2017-07-31T16:35:35.424Z,38.80
2017-07-31T16:38:03.650Z,39.40
2017-07-31T16:40:49.740Z,39.20
2017-07-31T16:43:35.839Z,39.60
2017-07-31T16:46:23.690Z,39.90
2017-07-31T16:49:09.813Z,40.40
2017-07-31T16:51:38.736Z,41.70
2017-07-31T16:54:06.909Z,41.70
2017-07-31T16:56:35.112Z,41.30
2017-07-31T16:59:03.289Z,41.30
2017-07-31T17:01:31.472Z,41.30
2017-07-31T17:03:59.661Z,42.30
2017-07-31T17:06:28.591Z,42.10
2017-07-31T17:08:56.902Z,41.80
2017-07-31T17:11:25.094Z,42.00
2017-07-31T17:13:53.306Z,42.10
2017-07-31T17:16:21.491Z,42.60
2017-07-31T17:18:49.685Z,43.20
2017-07-31T17:21:17.874Z,43.30
2017-07-31T17:23:49.033Z,43.40
2017-07-31T17:26:17.232Z,44.30
2017-07-31T17:28:46.176Z,44.80
2017-07-31T17:31:17.109Z,44.70
2017-07-31T17:33:47.225Z,45.70
2017-07-31T17:36:15.413Z,46.20
2017-07-31T17:38:43.663Z,46.70
2017-07-31T17:41:11.870Z,47.20
2017-07-31T17:43:40.030Z,47.50
2017-07-31T17:46:08.245Z,47.80
2017-07-31T17:48:36.457Z,47.90
2017-07-31T17:51:04.628Z,47.90
2017-07-31T17:53:33.780Z,47.50
2017-07-31T17:56:03.174Z,47.70
2017-07-31T17:58:31.362Z,47.40
2017-07-31T18:00:59.530Z,47.00
2017-07-31T18:03:27.731Z,47.20
2017-07-31T18:05:55.970Z,47.70
2017-07-31T18:08:24.126Z,47.50
2017-07-31T18:10:52.305Z,47.40
2017-07-31T18:13:20.463Z,47.50
2017-07-31T18:15:48.637Z,47.30
2017-07-31T18:18:16.814Z,47.50
2017-07-31T18:20:44.972Z,47.70
2017-07-31T18:23:13.904Z,47.80
2017-07-31T18:25:42.090Z,47.70
2017-07-31T18:28:10.279Z,48.10
2017-07-31T18:30:39.234Z,49.50
2017-07-31T18:33:07.411Z,49.40
2017-07-31T18:35:35.565Z,49.90
2017-07-31T18:38:03.721Z,49.80
2017-07-31T18:40:32.697Z,50.30
2017-07-31T18:43:00.846Z,50.20
2017-07-31T18:45:28.999Z,50.10
2017-07-31T18:47:57.197Z,50.20
2017-07-31T18:50:25.349Z,49.90
2017-07-31T18:52:53.517Z,50.10
2017-07-31T18:55:21.722Z,50.30
2017-07-31T18:57:49.870Z,50.70
2017-07-31T19:00:18.057Z,50.80
2017-07-31T19:02:46.227Z,50.90
2017-07-31T19:05:14.371Z,51.00
2017-07-31T19:07:43.277Z,51.20
2017-07-31T19:10:11.476Z,51.10
2017-07-31T19:12:39.650Z,51.00
2017-07-31T19:15:07.821Z,51.10
2017-07-31T19:17:36.017Z,51.50
2017-07-31T19:20:04.162Z,51.40
2017-07-31T19:22:32.308Z,51.60
2017-07-31T19:25:01.261Z,52.00
2017-07-31T19:27:29.432Z,51.90
2017-07-31T19:29:57.570Z,52.20
2017-07-31T19:32:26.535Z,52.40
2017-07-31T19:34:54.690Z,52.30
2017-07-31T19:37:22.854Z,52.20
2017-07-31T19:39:51.022Z,52.50
2017-07-31T19:42:19.184Z,52.40
2017-07-31T19:44:47.331Z,52.40
2017-07-31T19:47:16.294Z,52.40
2017-07-31T19:49:44.460Z,52.40
2017-07-31T19:52:12.612Z,52.40
2017-07-31T19:54:40.817Z,52.40
2017-07-31T19:57:08.968Z,52.70
2017-07-31T19:59:37.124Z,52.90
2017-07-31T20:02:05.298Z,52.90
2017-07-31T20:04:33.482Z,53.10
2017-07-31T20:07:02.152Z,53.40
2017-07-31T20:09:31.102Z,53.60
2017-07-31T20:12:06.741Z,53.60
2017-07-31T20:14:37.467Z,53.60
2017-07-31T20:17:06.918Z,53.90
2017-07-31T20:19:36.110Z,53.70
2017-07-31T20:22:04.878Z,53.60
2017-07-31T20:24:33.503Z,53.60
2017-07-31T20:27:02.149Z,53.60
2017-07-31T20:29:31.680Z,54.00
2017-07-31T20:32:00.596Z,54.30
2017-07-31T20:34:28.743Z,54.20
2017-07-31T20:36:58.145Z,54.90
2017-07-31T20:39:26.839Z,54.80
2017-07-31T20:41:55.738Z,55.00
2017-07-31T20:44:25.661Z,55.00
2017-07-31T20:46:53.877Z,54.90
2017-07-31T20:49:22.026Z,55.10
2017-07-31T20:51:50.217Z,55.40
2017-07-31T20:54:18.387Z,55.50
2017-07-31T20:56:46.564Z,55.70
2017-07-31T20:59:14.751Z,56.00
2017-07-31T21:01:42.926Z,56.20
2017-07-31T21:04:11.106Z,56.10
2017-07-31T21:06:39.310Z,56.10
2017-07-31T21:09:08.254Z,56.40
2017-07-31T21:11:36.409Z,56.40
2017-07-31T21:14:04.587Z,56.30
2017-07-31T21:16:32.742Z,56.60
2017-07-31T21:19:00.902Z,56.70
2017-07-31T21:21:29.855Z,57.10
2017-07-31T21:23:58.015Z,57.00
2017-07-31T21:26:26.667Z,57.30
2017-07-31T21:28:55.539Z,57.60
2017-07-31T21:31:24.121Z,57.80
2017-07-31T21:33:52.704Z,58.00
2017-07-31T21:36:20.949Z,58.10
2017-07-31T21:38:49.573Z,58.10
2017-07-31T21:41:17.788Z,58.30
2017-07-31T21:43:45.967Z,58.40
2017-07-31T21:46:14.137Z,58.20
2017-07-31T21:48:42.301Z,58.40
2017-07-31T21:51:11.124Z,58.40
2017-07-31T21:53:39.340Z,58.60
2017-07-31T21:56:08.280Z,59.20
2017-07-31T21:58:36.462Z,59.20
2017-07-31T22:01:04.637Z,59.10
2017-07-31T22:03:32.811Z,59.20
2017-07-31T22:06:00.990Z,59.30
2017-07-31T22:08:29.153Z,59.70
2017-07-31T22:10:57.318Z,59.60
2017-07-31T22:13:25.509Z,59.50
2017-07-31T22:15:53.678Z,59.20
2017-07-31T22:18:24.857Z,59.30
2017-07-31T22:20:58.612Z,59.50
2017-07-31T22:23:26.763Z,59.20
2017-07-31T22:25:55.675Z,59.20
2017-07-31T22:28:24.701Z,59.20
2017-07-31T22:30:52.854Z,59.20
2017-07-31T22:33:21.028Z,59.50
2017-07-31T22:35:49.211Z,59.30
2017-07-31T22:38:17.362Z,59.30
2017-07-31T22:40:45.526Z,58.80
2017-07-31T22:43:13.720Z,58.60
2017-07-31T22:45:41.884Z,59.00
2017-07-31T22:48:10.035Z,59.00
2017-07-31T22:50:38.996Z,59.00
2017-07-31T22:53:07.164Z,59.00
2017-07-31T22:55:35.330Z,58.80
2017-07-31T22:58:03.523Z,58.90
2017-07-31T23:00:31.688Z,59.00
2017-07-31T23:02:59.849Z,58.90
2017-07-31T23:05:28.041Z,59.20
2017-07-31T23:07:56.682Z,59.40
2017-07-31T23:10:24.885Z,59.00
2017-07-31T23:12:53.080Z,59.10
2017-07-31T23:15:21.248Z,59.30
2017-07-31T23:17:49.390Z,59.20
2017-07-31T23:20:17.558Z,59.40
2017-07-31T23:22:45.703Z,59.50
2017-07-31T23:25:14.644Z,59.30
2017-07-31T23:27:42.826Z,59.30
2017-07-31T23:30:10.990Z,58.40
2017-07-31T23:32:39.162Z,58.50
2017-07-31T23:35:07.329Z,59.00
2017-07-31T23:37:35.479Z,59.10
2017-07-31T23:40:04.413Z,59.20
2017-07-31T23:42:32.605Z,59.10
2017-07-31T23:45:00.748Z,59.10
2017-07-31T23:47:28.923Z,59.10
2017-07-31T23:49:57.103Z,59.50
2017-07-31T23:52:25.283Z,59.20
2017-07-31T23:54:53.439Z,59.60
2017-07-31T23:57:23.464Z,59.50
2017-07-31T23:59:51.611Z,59.30
